createdAt,value
2022-08-16T00:00:44.180Z,7.13
2022-08-16T00:03:30.271Z,6.72
2022-08-16T00:06:23.110Z,6.30
2022-08-16T00:09:10.889Z,7.00
2022-08-16T00:11:57.699Z,6.72
2022-08-16T00:14:44.453Z,6.60
2022-08-16T00:17:57.052Z,6.45
2022-08-16T00:20:38.925Z,5.88
2022-08-16T00:23:34.280Z,6.13
2022-08-16T00:26:35.030Z,6.97
2022-08-16T00:29:24.419Z,6.45
2022-08-16T00:32:11.261Z,5.75
2022-08-16T00:34:56.868Z,6.43
2022-08-16T00:37:56.980Z,7.00
2022-08-16T00:40:50.936Z,6.38
2022-08-16T00:43:43.175Z,6.68
2022-08-16T00:46:36.208Z,6.53
2022-08-16T00:49:22.809Z,6.30
2022-08-16T00:52:29.759Z,6.03
2022-08-16T00:55:14.405Z,6.15
2022-08-16T00:58:02.331Z,6.13
2022-08-16T01:00:53.902Z,6.45
2022-08-16T01:03:45.857Z,5.43
2022-08-16T01:06:48.979Z,6.35
2022-08-16T01:09:42.952Z,5.90
2022-08-16T01:12:28.349Z,5.90
2022-08-16T01:15:15.215Z,7.10
2022-08-16T01:18:04.373Z,6.22
2022-08-16T01:20:58.341Z,6.80
2022-08-16T01:24:51.525Z,6.75
2022-08-16T01:30:19.900Z,5.72
2022-08-16T01:33:14.496Z,5.90
2022-08-16T01:36:11.653Z,5.50
2022-08-16T01:38:57.961Z,5.80
2022-08-16T01:41:46.773Z,5.93
2022-08-16T01:44:37.607Z,5.70
2022-08-16T01:47:24.180Z,5.67
2022-08-16T01:50:42.483Z,5.75
2022-08-16T01:53:15.094Z,5.88
2022-08-16T01:56:24.511Z,5.55
2022-08-16T01:59:15.870Z,5.65
2022-08-16T02:02:04.882Z,5.55
2022-08-16T02:05:12.104Z,5.50
2022-08-16T02:07:58.431Z,6.63
2022-08-16T02:10:44.251Z,6.68
2022-08-16T02:13:32.858Z,6.13
2022-08-16T02:16:19.698Z,6.53
2022-08-16T02:19:16.101Z,5.78
2022-08-16T02:22:09.054Z,5.47
2022-08-16T02:25:15.067Z,6.47
2022-08-16T02:28:01.101Z,6.10
2022-08-16T02:30:50.951Z,5.68
2022-08-16T02:33:43.637Z,5.53
2022-08-16T02:36:47.752Z,5.90
2022-08-16T02:42:27.432Z,5.95
2022-08-16T02:45:15.669Z,6.28
2022-08-16T02:48:29.482Z,6.07
2022-08-16T02:51:10.771Z,6.70
2022-08-16T02:53:59.921Z,6.10
2022-08-16T02:56:47.709Z,6.55
2022-08-16T02:59:39.600Z,6.97
2022-08-16T03:02:31.780Z,6.65
2022-08-16T03:05:21.032Z,6.35
2022-08-16T03:08:06.995Z,5.75
2022-08-16T03:11:16.487Z,5.90
2022-08-16T03:17:00.402Z,5.90
2022-08-16T03:19:59.976Z,6.53
2022-08-16T03:22:53.859Z,6.15
2022-08-16T03:25:44.415Z,6.78
2022-08-16T03:28:32.278Z,6.50
2022-08-16T03:31:18.199Z,6.15
2022-08-16T03:34:04.174Z,6.68
2022-08-16T03:36:49.626Z,6.78
2022-08-16T03:39:42.788Z,7.10
2022-08-16T03:42:29.420Z,6.88
2022-08-16T03:45:16.400Z,6.13
2022-08-16T03:48:02.751Z,6.60
2022-08-16T03:50:59.817Z,6.40
2022-08-16T03:54:00.960Z,6.55
2022-08-16T03:56:56.679Z,6.65
2022-08-16T03:59:46.116Z,6.68
2022-08-16T04:02:33.554Z,6.60
2022-08-16T04:05:24.499Z,6.40
2022-08-16T04:08:22.326Z,6.20
2022-08-16T04:11:11.371Z,6.07
2022-08-16T04:14:32.495Z,5.43
2022-08-16T04:17:07.919Z,6.15
2022-08-16T04:19:58.167Z,6.18
2022-08-16T04:22:44.910Z,5.85
2022-08-16T04:25:35.625Z,6.07
2022-08-16T04:28:52.044Z,6.28
2022-08-16T04:31:29.626Z,6.47
2022-08-16T04:34:16.936Z,6.05
2022-08-16T04:37:06.852Z,6.43
2022-08-16T04:39:57.512Z,5.53
2022-08-16T04:42:45.956Z,5.28
2022-08-16T04:45:36.229Z,5.88
2022-08-16T04:48:34.209Z,6.03
2022-08-16T04:51:36.003Z,6.18
2022-08-16T04:54:22.721Z,5.75
2022-08-16T04:57:08.378Z,5.20
2022-08-16T04:59:55.985Z,4.95
2022-08-16T05:02:42.988Z,4.88
2022-08-16T05:05:32.746Z,6.35
2022-08-16T05:08:29.543Z,4.82
2022-08-16T05:11:22.627Z,5.07
2022-08-16T05:14:20.259Z,4.95
2022-08-16T05:17:18.865Z,6.30
2022-08-16T05:20:39.370Z,5.60
2022-08-16T05:23:17.497Z,5.00
2022-08-16T05:26:04.809Z,5.13
2022-08-16T05:28:55.161Z,4.75
2022-08-16T05:31:48.021Z,5.15
2022-08-16T05:34:35.411Z,5.18
2022-08-16T05:37:24.555Z,5.32
2022-08-16T05:40:13.205Z,5.38
2022-08-16T05:43:03.526Z,6.28
2022-08-16T05:45:52.714Z,6.20
2022-08-16T05:48:38.286Z,5.97
2022-08-16T05:51:38.125Z,5.68
2022-08-16T05:54:29.356Z,5.72
2022-08-16T05:57:20.607Z,5.13
2022-08-16T06:00:12.636Z,6.50
2022-08-16T06:03:12.957Z,5.88
2022-08-16T06:06:28.067Z,7.00
2022-08-16T06:09:17.206Z,6.63
2022-08-16T06:12:04.109Z,5.70
2022-08-16T06:14:51.382Z,6.10
2022-08-16T06:17:42.951Z,6.03
2022-08-16T06:20:55.314Z,5.78
2022-08-16T06:23:42.835Z,5.97
2022-08-16T06:26:34.686Z,6.03
2022-08-16T06:29:24.697Z,5.75
2022-08-16T06:32:27.697Z,6.30
2022-08-16T06:35:16.605Z,6.55
2022-08-16T06:38:05.055Z,5.50
2022-08-16T06:40:51.197Z,6.20
2022-08-16T06:43:38.008Z,5.85
2022-08-16T06:46:37.521Z,6.50
2022-08-16T06:49:29.866Z,5.38
2022-08-16T06:52:57.826Z,6.25
2022-08-16T06:55:25.746Z,6.38
2022-08-16T06:58:22.259Z,5.22
2022-08-16T07:01:42.848Z,5.80
2022-08-16T07:04:32.528Z,5.90
2022-08-16T07:07:33.849Z,6.45
2022-08-16T07:13:16.759Z,5.32
2022-08-16T07:16:20.448Z,5.63
2022-08-16T07:19:06.900Z,5.80
2022-08-16T07:21:59.363Z,5.25
2022-08-16T07:24:46.695Z,5.95
2022-08-16T07:27:33.916Z,7.25
2022-08-16T07:30:39.127Z,6.28
2022-08-16T07:33:51.847Z,6.50
2022-08-16T07:36:45.270Z,6.15
2022-08-16T07:39:44.584Z,5.88
2022-08-16T07:42:35.174Z,6.20
2022-08-16T07:45:21.601Z,6.03
2022-08-16T07:48:11.891Z,6.50
2022-08-16T07:51:08.904Z,6.30
2022-08-16T07:54:02.648Z,6.70
2022-08-16T07:56:59.001Z,5.65
2022-08-16T07:59:46.465Z,6.30
2022-08-16T08:02:35.234Z,6.75
2022-08-16T08:05:25.524Z,6.30
2022-08-16T08:08:51.078Z,6.88
2022-08-16T08:11:30.019Z,6.15
2022-08-16T08:14:29.697Z,6.82
2022-08-16T08:17:18.384Z,7.53
2022-08-16T08:20:04.610Z,7.38
2022-08-16T08:22:51.506Z,7.93
2022-08-16T08:25:53.419Z,7.25
2022-08-16T08:28:41.474Z,7.57
2022-08-16T08:31:27.562Z,8.23
2022-08-16T08:34:13.826Z,7.70
2022-08-16T08:37:05.478Z,7.05
2022-08-16T08:39:57.621Z,6.97
2022-08-16T08:42:43.674Z,6.78
2022-08-16T08:45:52.715Z,7.20
2022-08-16T08:48:40.326Z,7.00
2022-08-16T08:51:36.681Z,6.90
2022-08-16T08:54:23.063Z,6.53
2022-08-16T08:57:12.895Z,6.05
2022-08-16T09:00:30.067Z,6.15
2022-08-16T09:03:18.085Z,7.45
2022-08-16T09:06:06.020Z,6.82
2022-08-16T09:11:47.251Z,6.40
2022-08-16T09:14:38.811Z,6.22
2022-08-16T09:17:51.660Z,6.65
2022-08-16T09:20:59.106Z,6.18
2022-08-16T09:23:46.372Z,5.72
2022-08-16T09:26:44.925Z,6.65
2022-08-16T09:29:45.519Z,6.00
2022-08-16T09:32:34.850Z,5.95
2022-08-16T09:35:22.360Z,5.32
2022-08-16T09:38:09.919Z,5.68
2022-08-16T09:40:58.742Z,5.53
2022-08-16T09:43:59.504Z,5.65
2022-08-16T09:46:49.555Z,5.90
2022-08-16T09:49:37.047Z,5.65
2022-08-16T09:52:23.005Z,6.32
2022-08-16T09:55:12.504Z,6.07
2022-08-16T09:57:58.632Z,5.57
2022-08-16T10:00:45.580Z,5.30
2022-08-16T10:03:31.682Z,5.57
2022-08-16T10:06:19.151Z,5.65
2022-08-16T10:09:11.373Z,5.73
2022-08-16T10:12:19.347Z,5.90
2022-08-16T10:15:08.769Z,5.53
2022-08-16T10:19:02.085Z,5.85
2022-08-16T10:21:13.926Z,5.80
2022-08-16T10:24:00.107Z,5.47
2022-08-16T10:27:20.421Z,5.88
2022-08-16T10:30:00.893Z,5.90
2022-08-16T10:32:47.714Z,5.40
2022-08-16T10:35:33.324Z,5.72
2022-08-16T10:38:27.635Z,6.13
2022-08-16T10:41:15.982Z,6.15
2022-08-16T10:44:02.117Z,6.03
2022-08-16T10:46:47.727Z,4.68
2022-08-16T10:49:34.979Z,5.00
2022-08-16T10:52:24.324Z,5.25
2022-08-16T10:58:17.386Z,5.15
2022-08-16T11:17:10.425Z,5.70
2022-08-16T11:23:16.438Z,5.90
2022-08-16T11:26:10.281Z,5.93
2022-08-16T11:29:15.046Z,6.90
2022-08-16T11:32:02.063Z,6.15
2022-08-16T11:35:10.349Z,6.88
2022-08-16T11:38:23.442Z,6.43
2022-08-16T11:41:08.177Z,5.97
2022-08-16T11:43:54.930Z,6.63
2022-08-16T11:46:45.050Z,6.20
2022-08-16T11:49:31.840Z,5.70
2022-08-16T11:52:17.987Z,6.40
2022-08-16T11:55:12.835Z,6.28
2022-08-16T11:58:00.437Z,5.55
2022-08-16T12:00:51.829Z,5.25
2022-08-16T12:03:39.131Z,5.75
2022-08-16T12:06:30.486Z,6.07
2022-08-16T12:09:16.589Z,5.53
2022-08-16T12:12:04.281Z,5.38
2022-08-16T12:14:59.831Z,5.70
2022-08-16T12:17:46.935Z,5.50
2022-08-16T12:20:38.225Z,5.55
2022-08-16T12:23:24.391Z,6.00
2022-08-16T12:26:10.836Z,6.43
2022-08-16T12:28:56.667Z,5.13
2022-08-16T12:32:01.187Z,5.60
2022-08-16T12:34:53.122Z,5.30
2022-08-16T12:37:41.525Z,5.43
2022-08-16T12:40:34.942Z,5.72
2022-08-16T12:43:23.812Z,5.40
2022-08-16T12:46:10.873Z,5.22
2022-08-16T12:49:00.137Z,6.22
2022-08-16T12:51:59.072Z,7.40
2022-08-16T12:54:46.165Z,6.50
2022-08-16T12:57:42.055Z,7.20
2022-08-16T13:00:33.646Z,7.07
2022-08-16T13:03:21.460Z,7.13
2022-08-16T13:06:08.585Z,6.82
2022-08-16T13:08:55.553Z,5.90
2022-08-16T13:11:49.266Z,6.22
2022-08-16T13:14:45.285Z,6.78
2022-08-16T13:17:31.209Z,5.97
2022-08-16T13:20:20.671Z,6.30
2022-08-16T13:23:11.367Z,6.70
2022-08-16T13:25:58.101Z,5.67
2022-08-16T13:28:47.696Z,6.88
2022-08-16T13:31:34.073Z,6.97
2022-08-16T13:34:20.237Z,7.45
2022-08-16T13:37:06.106Z,7.25
2022-08-16T13:39:52.030Z,7.35
2022-08-16T13:42:41.445Z,6.57
2022-08-16T13:45:36.231Z,6.95
2022-08-16T13:48:42.567Z,7.30
2022-08-16T13:51:31.557Z,6.18
2022-08-16T13:57:11.539Z,5.03
2022-08-16T13:59:57.768Z,5.60
2022-08-16T14:02:45.222Z,6.05
2022-08-16T14:05:33.419Z,5.72
2022-08-16T14:08:22.835Z,5.03
2022-08-16T14:11:14.546Z,5.20
2022-08-16T14:14:00.253Z,5.43
2022-08-16T14:16:45.942Z,4.88
2022-08-16T14:19:31.766Z,5.70
2022-08-16T14:22:30.687Z,5.20
2022-08-16T14:25:20.982Z,6.28
2022-08-16T14:28:09.559Z,6.40
2022-08-16T14:30:55.604Z,5.53
2022-08-16T14:33:41.549Z,6.40
2022-08-16T14:36:30.090Z,5.40
2022-08-16T14:39:18.154Z,4.68
2022-08-16T14:42:08.863Z,5.78
2022-08-16T14:44:55.943Z,6.38
2022-08-16T14:47:42.507Z,6.80
2022-08-16T14:50:28.783Z,6.43
2022-08-16T14:53:14.490Z,6.68
2022-08-16T14:56:03.641Z,5.47
2022-08-16T14:58:50.381Z,6.55
2022-08-16T15:01:57.418Z,6.70
2022-08-16T15:04:48.406Z,7.28
2022-08-16T15:07:35.535Z,7.78
2022-08-16T15:10:24.325Z,7.88
2022-08-16T15:13:13.810Z,7.60
2022-08-16T15:16:02.999Z,7.72
2022-08-16T15:18:49.564Z,7.40
2022-08-16T15:21:36.354Z,8.15
2022-08-16T15:24:22.921Z,7.85
2022-08-16T15:27:10.657Z,7.93
2022-08-16T15:29:57.976Z,8.27
2022-08-16T15:32:43.432Z,8.25
2022-08-16T15:35:31.848Z,8.60
2022-08-16T15:38:54.866Z,8.40
2022-08-16T15:41:43.058Z,7.97
2022-08-16T15:44:38.879Z,7.72
2022-08-16T15:47:37.653Z,8.48
2022-08-16T15:50:25.070Z,8.50
2022-08-16T15:53:20.138Z,8.30
2022-08-16T15:56:06.891Z,8.60
2022-08-16T15:58:55.812Z,8.90
2022-08-16T16:01:42.039Z,9.05
2022-08-16T16:04:31.374Z,9.30
2022-08-16T16:07:16.948Z,8.55
2022-08-16T16:10:07.867Z,9.90
2022-08-16T16:13:01.843Z,8.95
2022-08-16T16:15:52.670Z,9.40
2022-08-16T16:18:39.475Z,8.63
2022-08-16T16:21:26.545Z,8.32
2022-08-16T16:24:21.405Z,8.95
2022-08-16T16:27:09.924Z,8.55
2022-08-16T16:29:58.101Z,8.43
2022-08-16T16:32:48.860Z,8.00
2022-08-16T16:35:36.934Z,7.97
2022-08-16T16:38:22.460Z,8.18
2022-08-16T16:41:09.798Z,7.97
2022-08-16T16:43:56.964Z,7.68
2022-08-16T16:46:43.924Z,7.18
2022-08-16T16:49:29.541Z,7.40
2022-08-16T16:52:43.331Z,7.80
2022-08-16T16:55:23.007Z,8.43
2022-08-16T16:58:36.617Z,8.07
2022-08-16T17:01:35.010Z,8.23
2022-08-16T17:04:37.727Z,8.93
2022-08-16T17:07:24.214Z,7.93
2022-08-16T17:10:10.491Z,8.23
2022-08-16T17:12:56.691Z,8.50
2022-08-16T17:15:42.238Z,7.63
2022-08-16T17:19:14.781Z,8.05
2022-08-16T17:21:37.113Z,9.50
2022-08-16T17:24:33.218Z,7.85
2022-08-16T17:27:32.799Z,8.98
2022-08-16T17:30:29.626Z,8.18
2022-08-16T17:33:36.952Z,8.65
2022-08-16T17:36:36.367Z,8.48
2022-08-16T17:39:23.828Z,9.27
2022-08-16T17:42:17.927Z,8.00
2022-08-16T17:45:03.988Z,8.27
2022-08-16T17:47:50.394Z,8.55
2022-08-16T17:50:37.556Z,8.50
2022-08-16T17:53:23.698Z,8.27
2022-08-16T17:56:10.623Z,8.45
2022-08-16T17:58:56.359Z,8.32
2022-08-16T18:01:42.581Z,35.30
2022-08-16T18:04:48.489Z,15.50
2022-08-16T18:07:35.421Z,15.70
2022-08-16T18:10:33.083Z,8.27
2022-08-16T18:13:21.703Z,7.88
2022-08-16T18:16:07.520Z,8.98
2022-08-16T18:18:53.264Z,8.23
2022-08-16T18:21:57.513Z,8.50
2022-08-16T18:24:50.962Z,8.63
2022-08-16T18:30:24.551Z,8.18
2022-08-16T18:33:11.218Z,7.75
2022-08-16T18:35:57.839Z,8.93
2022-08-16T18:38:43.653Z,9.27
2022-08-16T18:41:30.513Z,8.00
2022-08-16T18:44:25.024Z,4.00
2022-08-16T18:47:13.864Z,3.80
2022-08-16T18:49:59.864Z,3.13
2022-08-16T18:52:57.522Z,3.08
2022-08-16T18:55:45.258Z,2.97
2022-08-16T18:58:34.013Z,2.45
2022-08-16T19:01:19.674Z,2.10
2022-08-16T19:04:05.326Z,2.13
2022-08-16T19:07:11.261Z,1.98
2022-08-16T19:09:56.668Z,2.05
2022-08-16T19:12:45.095Z,1.58
2022-08-16T19:15:31.226Z,1.67
2022-08-16T19:18:17.396Z,1.85
2022-08-16T19:21:03.200Z,1.77
2022-08-16T19:23:48.600Z,1.90
2022-08-16T19:26:38.353Z,1.70
2022-08-16T19:29:24.546Z,1.90
2022-08-16T19:32:39.562Z,1.67
2022-08-16T19:35:25.324Z,1.70
2022-08-16T19:38:12.115Z,1.95
2022-08-16T19:40:57.943Z,1.52
2022-08-16T19:43:43.564Z,1.60
2022-08-16T19:46:29.191Z,1.70
2022-08-16T19:49:16.420Z,1.60
2022-08-16T19:52:23.707Z,1.80
2022-08-16T19:55:11.755Z,1.40
2022-08-16T19:57:57.661Z,1.60
2022-08-16T20:00:45.681Z,3.38
2022-08-16T20:03:31.410Z,2.35
2022-08-16T20:06:32.197Z,1.45
2022-08-16T20:09:23.469Z,2.47
2022-08-16T20:12:15.604Z,2.10
2022-08-16T20:15:01.424Z,1.98
2022-08-16T20:17:48.321Z,2.15
2022-08-16T20:20:33.840Z,2.10
2022-08-16T20:23:24.866Z,2.88
2022-08-16T20:26:10.966Z,1.83
2022-08-16T20:28:56.839Z,2.33
2022-08-16T20:31:42.666Z,2.55
2022-08-16T20:34:27.975Z,2.35
2022-08-16T20:37:16.301Z,2.40
2022-08-16T20:40:27.274Z,2.10
2022-08-16T20:43:10.547Z,2.58
2022-08-16T20:45:56.218Z,2.22
2022-08-16T20:48:42.082Z,1.77
2022-08-16T20:51:28.161Z,2.20
2022-08-16T20:54:14.859Z,2.30
2022-08-16T20:57:02.937Z,2.08
2022-08-16T20:59:50.272Z,1.92
2022-08-16T21:02:35.749Z,1.95
2022-08-16T21:05:30.984Z,2.03
2022-08-16T21:08:37.797Z,1.98
2022-08-16T21:11:23.819Z,2.30
2022-08-16T21:14:11.695Z,2.40
2022-08-16T21:16:57.200Z,1.80
2022-08-16T21:19:44.970Z,2.40
2022-08-16T21:22:30.726Z,2.20
2022-08-16T21:25:16.835Z,2.25
2022-08-16T21:29:33.673Z,1.95
2022-08-16T21:35:22.008Z,2.00
2022-08-16T21:38:29.371Z,2.10
2022-08-16T21:41:16.160Z,2.30
2022-08-16T21:44:01.749Z,2.03
2022-08-16T21:46:47.466Z,2.30
2022-08-16T21:49:33.005Z,2.33
2022-08-16T21:52:27.059Z,2.28
2022-08-16T21:55:12.628Z,2.38
2022-08-16T21:57:58.727Z,2.08
2022-08-16T22:00:44.954Z,2.85
2022-08-16T22:03:33.928Z,3.17
2022-08-16T22:06:19.692Z,3.60
2022-08-16T22:09:07.203Z,3.28
2022-08-16T22:11:52.922Z,4.10
2022-08-16T22:14:38.906Z,3.20
2022-08-16T22:17:24.344Z,3.20
2022-08-16T22:20:10.913Z,3.13
2022-08-16T22:23:12.414Z,2.88
2022-08-16T22:25:57.905Z,3.40
2022-08-16T22:28:43.898Z,3.30
2022-08-16T22:31:29.379Z,3.60
2022-08-16T22:34:15.298Z,3.20
2022-08-16T22:37:01.012Z,3.50
2022-08-16T22:39:46.689Z,3.03
2022-08-16T22:42:32.876Z,2.88
2022-08-16T22:45:20.318Z,3.05
2022-08-16T22:48:06.168Z,3.08
2022-08-16T22:50:52.950Z,3.25
2022-08-16T22:53:38.244Z,3.17
2022-08-16T22:56:24.745Z,3.15
2022-08-16T22:59:10.190Z,3.60
2022-08-16T23:01:55.823Z,3.58
2022-08-16T23:04:42.412Z,3.00
2022-08-16T23:07:28.093Z,3.55
2022-08-16T23:10:14.178Z,3.25
2022-08-16T23:13:03.980Z,3.58
2022-08-16T23:15:55.681Z,3.58
2022-08-16T23:18:42.003Z,3.50
2022-08-16T23:21:27.860Z,3.38
2022-08-16T23:24:14.397Z,3.72
2022-08-16T23:27:00.611Z,3.03
2022-08-16T23:29:46.089Z,4.18
2022-08-16T23:32:31.572Z,3.58
2022-08-16T23:35:22.227Z,3.42
2022-08-16T23:38:08.589Z,3.90
2022-08-16T23:41:14.210Z,3.55
2022-08-16T23:43:59.646Z,3.88
2022-08-16T23:46:47.781Z,3.97
2022-08-16T23:49:57.071Z,4.13
2022-08-16T23:52:55.924Z,3.92
2022-08-16T23:55:46.920Z,4.68
2022-08-16T23:58:36.638Z,4.22
